createdAt,value
2018-11-02T00:02:43.022Z,81.54
2018-11-02T00:05:47.155Z,81.44
2018-11-02T00:08:51.298Z,80.86
2018-11-02T00:11:55.425Z,81.00
2018-11-02T00:14:59.558Z,81.13
2018-11-02T00:18:03.694Z,81.24
2018-11-02T00:21:07.830Z,82.17
2018-11-02T00:24:11.966Z,84.16
2018-11-02T00:27:16.102Z,82.48
2018-11-02T00:30:20.238Z,82.39
2018-11-02T00:33:24.370Z,81.15
2018-11-02T00:36:28.499Z,81.87
2018-11-02T00:39:32.639Z,81.45
2018-11-02T00:42:37.561Z,81.12
2018-11-02T00:45:41.682Z,81.59
2018-11-02T00:48:45.818Z,81.63
2018-11-02T00:51:50.781Z,82.05
2018-11-02T00:54:54.920Z,82.37
2018-11-02T00:57:59.072Z,82.67
2018-11-02T01:01:03.198Z,82.08
2018-11-02T01:04:07.552Z,82.92
2018-11-02T01:07:11.682Z,82.68
2018-11-02T01:10:15.846Z,83.16
2018-11-02T01:13:19.982Z,83.46
2018-11-02T01:16:24.129Z,83.55
2018-11-02T01:19:32.142Z,83.75
2018-11-02T01:22:36.311Z,83.65
2018-11-02T01:25:40.430Z,83.62
2018-11-02T01:28:44.557Z,82.70
2018-11-02T01:31:48.690Z,82.64
2018-11-02T01:34:52.886Z,82.88
2018-11-02T01:37:57.029Z,82.75
2018-11-02T01:41:01.178Z,82.38
2018-11-02T01:44:05.366Z,82.44
2018-11-02T01:47:09.535Z,82.65
2018-11-02T01:50:13.662Z,81.95
2018-11-02T01:53:17.898Z,82.17
2018-11-02T01:56:22.029Z,81.96
2018-11-02T01:59:26.162Z,82.63
2018-11-02T02:02:30.307Z,82.36
2018-11-02T02:05:34.477Z,80.96
2018-11-02T02:08:38.620Z,80.58
2018-11-02T02:11:42.749Z,81.74
2018-11-02T02:14:46.851Z,81.67
2018-11-02T02:17:50.951Z,82.48
2018-11-02T02:20:55.047Z,81.67
2018-11-02T02:23:59.150Z,82.81
2018-11-02T02:27:03.238Z,82.70
2018-11-02T02:30:12.067Z,80.59
2018-11-02T02:33:16.232Z,80.61
2018-11-02T02:36:20.316Z,81.36
2018-11-02T02:39:24.415Z,82.39
2018-11-02T02:42:28.518Z,83.14
2018-11-02T02:45:32.619Z,82.34
2018-11-02T02:48:36.722Z,81.85
2018-11-02T02:51:40.826Z,81.70
2018-11-02T02:54:44.926Z,81.61
2018-11-02T02:57:49.041Z,81.15
2018-11-02T03:00:53.139Z,81.40
2018-11-02T03:03:57.331Z,81.38
2018-11-02T03:07:01.454Z,81.53
2018-11-02T03:10:05.596Z,82.40
2018-11-02T03:13:09.691Z,82.70
2018-11-02T03:16:13.804Z,83.02
2018-11-02T03:19:17.915Z,83.04
2018-11-02T03:22:22.069Z,81.90
2018-11-02T03:25:26.151Z,82.34
2018-11-02T03:28:30.258Z,81.89
2018-11-02T03:31:34.363Z,81.84
2018-11-02T03:34:38.530Z,82.52
2018-11-02T03:37:42.631Z,82.60
2018-11-02T03:40:46.743Z,82.47
2018-11-02T03:43:50.878Z,82.90
2018-11-02T03:46:54.970Z,83.00
2018-11-02T03:49:59.149Z,82.63
2018-11-02T03:53:03.259Z,82.10
2018-11-02T03:56:07.394Z,82.69
2018-11-02T03:59:11.550Z,82.61
2018-11-02T04:02:15.655Z,83.04
2018-11-02T04:05:19.760Z,83.13
2018-11-02T04:08:23.857Z,82.69
2018-11-02T04:11:27.982Z,82.74
2018-11-02T04:14:32.226Z,83.47
2018-11-02T04:17:36.390Z,83.68
2018-11-02T04:20:40.533Z,82.86
2018-11-02T04:23:44.598Z,82.73
2018-11-02T04:26:48.707Z,83.22
2018-11-02T04:29:52.815Z,83.71
2018-11-02T04:32:56.915Z,84.01
2018-11-02T04:36:01.010Z,84.82
2018-11-02T04:39:08.124Z,85.13
2018-11-02T04:42:12.214Z,84.13
2018-11-02T04:45:20.662Z,84.07
2018-11-02T04:48:24.766Z,84.05
2018-11-02T04:51:28.875Z,83.28
2018-11-02T04:54:32.979Z,83.51
2018-11-02T04:57:37.068Z,83.49
2018-11-02T05:00:41.170Z,83.35
2018-11-02T05:03:45.310Z,82.65
2018-11-02T05:06:49.407Z,82.30
2018-11-02T05:09:53.577Z,82.47
2018-11-02T05:12:57.622Z,82.76
2018-11-02T05:16:01.724Z,83.23
2018-11-02T05:19:06.100Z,82.87
2018-11-02T05:22:10.289Z,82.00
2018-11-02T05:25:14.386Z,82.81
2018-11-02T05:28:18.487Z,83.10
2018-11-02T05:31:22.692Z,83.90
2018-11-02T05:34:26.795Z,83.78
2018-11-02T05:37:30.914Z,83.80
2018-11-02T05:40:35.026Z,84.33
2018-11-02T05:43:39.118Z,84.70
2018-11-02T05:46:43.230Z,84.94
2018-11-02T05:49:47.619Z,85.23
2018-11-02T05:52:51.722Z,85.15
2018-11-02T05:55:55.834Z,84.94
2018-11-02T05:58:59.932Z,84.97
2018-11-02T06:02:07.072Z,85.03
2018-11-02T06:05:11.170Z,84.59
2018-11-02T06:08:15.263Z,83.30
2018-11-02T06:11:19.366Z,84.26
2018-11-02T06:14:23.471Z,84.16
2018-11-02T06:17:27.621Z,84.07
2018-11-02T06:20:31.724Z,84.03
2018-11-02T06:23:35.821Z,84.14
2018-11-02T06:26:39.942Z,84.62
2018-11-02T06:29:44.042Z,84.49
2018-11-02T06:32:48.190Z,84.08
2018-11-02T06:35:52.244Z,84.39
2018-11-02T06:38:56.511Z,84.85
2018-11-02T06:42:00.527Z,84.56
2018-11-02T06:45:04.991Z,84.64
2018-11-02T06:48:08.991Z,84.32
2018-11-02T06:51:13.190Z,83.90
2018-11-02T06:54:17.291Z,84.08
2018-11-02T06:57:21.408Z,84.52
2018-11-02T07:00:25.559Z,84.55
2018-11-02T07:03:29.594Z,83.99
2018-11-02T07:06:33.785Z,84.15
2018-11-02T07:09:37.875Z,84.35
2018-11-02T07:12:41.978Z,83.95
2018-11-02T07:15:46.182Z,83.73
2018-11-02T07:18:50.279Z,83.79
2018-11-02T07:21:54.406Z,83.96
2018-11-02T07:24:58.554Z,83.58
2018-11-02T07:28:02.594Z,83.42
2018-11-02T07:31:06.704Z,83.72
2018-11-02T07:34:10.855Z,84.18
2018-11-02T07:37:14.918Z,83.95
2018-11-02T07:40:19.018Z,84.07
2018-11-02T07:43:23.123Z,83.53
2018-11-02T07:46:27.234Z,83.78
2018-11-02T07:49:31.436Z,83.56
2018-11-02T07:52:35.443Z,83.33
2018-11-02T07:55:39.544Z,82.95
2018-11-02T07:58:43.662Z,82.88
2018-11-02T08:01:48.476Z,82.72
2018-11-02T08:04:52.508Z,82.44
2018-11-02T08:07:56.602Z,82.09
2018-11-02T08:11:00.710Z,81.15
2018-11-02T08:14:05.075Z,80.59
2018-11-02T08:17:09.216Z,80.15
2018-11-02T08:20:13.923Z,79.79
2018-11-02T08:23:18.038Z,78.90
2018-11-02T08:26:22.143Z,78.90
2018-11-02T08:29:26.230Z,78.54
2018-11-02T08:32:30.336Z,78.30
2018-11-02T08:35:34.443Z,78.64
2018-11-02T08:38:38.550Z,78.71
2018-11-02T08:41:42.656Z,78.83
2018-11-02T08:44:46.752Z,79.56
2018-11-02T08:47:50.861Z,79.38
2018-11-02T08:50:54.974Z,79.95
2018-11-02T08:53:59.094Z,79.92
2018-11-02T08:57:03.195Z,80.23
2018-11-02T09:00:09.959Z,79.91
2018-11-02T09:03:14.003Z,80.60
2018-11-02T09:06:18.106Z,78.71
2018-11-02T09:09:22.219Z,78.74
2018-11-02T09:12:26.486Z,76.45
2018-11-02T09:15:30.607Z,76.84
2018-11-02T09:18:34.800Z,77.24
2018-11-02T09:21:38.834Z,79.04
2018-11-02T09:24:42.939Z,78.84
2018-11-02T09:27:47.101Z,79.43
2018-11-02T09:30:51.179Z,78.14
2018-11-02T09:33:55.306Z,77.61
2018-11-02T09:36:59.411Z,75.87
2018-11-02T09:40:03.558Z,72.61
2018-11-02T09:43:07.678Z,73.27
2018-11-02T09:46:11.812Z,72.37
2018-11-02T09:49:15.918Z,73.49
2018-11-02T09:52:20.031Z,73.55
2018-11-02T09:55:24.147Z,73.88
2018-11-02T09:58:28.251Z,75.20
2018-11-02T10:01:32.350Z,74.31
2018-11-02T10:04:36.472Z,74.83
2018-11-02T10:07:41.373Z,75.93
2018-11-02T10:10:45.503Z,75.15
2018-11-02T10:13:49.618Z,76.35
2018-11-02T10:16:53.731Z,75.96
2018-11-02T10:19:57.887Z,75.33
2018-11-02T10:23:01.968Z,75.20
2018-11-02T10:26:06.083Z,75.24
2018-11-02T10:29:10.191Z,74.80
2018-11-02T10:32:14.306Z,73.50
2018-11-02T10:35:18.457Z,71.35
2018-11-02T10:38:22.523Z,68.80
2018-11-02T10:41:33.516Z,64.72
2018-11-02T10:44:42.355Z,59.27
2018-11-02T10:47:47.382Z,54.24
2018-11-02T10:50:51.524Z,50.16
2018-11-02T10:53:55.635Z,48.81
2018-11-02T10:56:59.758Z,46.32
2018-11-02T11:00:03.910Z,44.70
2018-11-02T11:03:08.019Z,47.02
2018-11-02T11:06:12.124Z,48.18
2018-11-02T11:09:16.254Z,49.49
2018-11-02T11:12:20.457Z,51.80
2018-11-02T11:15:24.479Z,49.94
2018-11-02T11:18:28.606Z,48.60
2018-11-02T11:21:32.815Z,48.79
2018-11-02T11:24:36.824Z,50.14
2018-11-02T11:27:41.039Z,52.39
2018-11-02T11:30:45.152Z,53.44
2018-11-02T11:33:49.539Z,56.02
2018-11-02T11:36:53.646Z,59.82
2018-11-02T11:39:57.759Z,59.15
2018-11-02T11:43:01.871Z,60.82
2018-11-02T11:46:05.990Z,59.02
2018-11-02T11:49:10.790Z,59.43
2018-11-02T11:52:14.854Z,61.19
2018-11-02T11:55:19.100Z,60.62
2018-11-02T11:58:23.202Z,61.68
2018-11-02T12:01:27.310Z,63.18
2018-11-02T12:04:31.477Z,63.29
2018-11-02T12:07:35.546Z,63.97
2018-11-02T12:10:39.650Z,63.64
2018-11-02T12:13:43.875Z,64.63
2018-11-02T12:16:48.012Z,64.76
2018-11-02T12:19:52.126Z,65.74
2018-11-02T12:23:00.386Z,64.88
2018-11-02T12:26:04.707Z,65.45
2018-11-02T12:29:08.808Z,65.08
2018-11-02T12:32:12.918Z,65.71
2018-11-02T12:35:17.962Z,65.87
2018-11-02T12:38:22.076Z,66.10
2018-11-02T12:41:26.194Z,65.80
2018-11-02T12:44:30.296Z,66.40
2018-11-02T12:47:34.398Z,67.10
2018-11-02T12:50:38.584Z,68.09
2018-11-02T12:53:42.620Z,68.07
2018-11-02T12:56:46.727Z,66.73
2018-11-02T12:59:50.834Z,67.40
2018-11-02T13:02:55.315Z,66.13
2018-11-02T13:05:59.427Z,66.84
2018-11-02T13:09:03.633Z,67.32
2018-11-02T13:12:07.966Z,67.38
2018-11-02T13:15:14.750Z,67.33
2018-11-02T13:18:20.714Z,67.50
2018-11-02T13:21:24.817Z,68.24
2018-11-02T13:24:28.979Z,68.37
2018-11-02T13:27:33.086Z,69.11
2018-11-02T13:30:37.244Z,68.76
2018-11-02T13:33:41.323Z,68.02
2018-11-02T13:36:45.657Z,69.18
2018-11-02T13:39:49.582Z,68.77
2018-11-02T13:42:53.791Z,68.26
2018-11-02T13:45:57.847Z,68.71
2018-11-02T13:49:01.971Z,68.49
2018-11-02T13:52:07.374Z,68.72
2018-11-02T13:55:12.262Z,68.08
2018-11-02T13:58:16.375Z,69.44
2018-11-02T14:01:20.631Z,69.75
2018-11-02T14:04:24.588Z,70.26
2018-11-02T14:07:28.699Z,69.54
2018-11-02T14:10:32.790Z,69.02
2018-11-02T14:13:36.906Z,68.59
2018-11-02T14:16:41.034Z,69.14
2018-11-02T14:19:45.147Z,68.80
2018-11-02T14:22:49.278Z,68.84
2018-11-02T14:25:53.379Z,68.91
2018-11-02T14:28:57.478Z,69.66
2018-11-02T14:32:01.586Z,70.38
2018-11-02T14:35:05.722Z,71.42
2018-11-02T14:38:09.847Z,69.14
2018-11-02T14:41:14.047Z,69.15
2018-11-02T14:44:18.122Z,69.02
2018-11-02T14:47:22.226Z,69.66
2018-11-02T14:50:26.340Z,71.28
2018-11-02T14:53:30.468Z,71.42
2018-11-02T14:56:34.564Z,71.67
2018-11-02T14:59:38.722Z,71.76
2018-11-02T15:02:43.114Z,70.40
2018-11-02T15:05:47.231Z,71.09
2018-11-02T15:08:51.366Z,71.87
2018-11-02T15:11:55.472Z,72.76
2018-11-02T15:14:59.590Z,72.61
2018-11-02T15:18:03.715Z,72.50
2018-11-02T15:21:07.835Z,72.89
2018-11-02T15:24:11.945Z,72.48
2018-11-02T15:27:16.056Z,72.63
2018-11-02T15:30:20.187Z,71.72
2018-11-02T15:33:24.302Z,72.37
2018-11-02T15:36:28.418Z,73.40
2018-11-02T15:39:32.550Z,74.07
2018-11-02T15:42:36.686Z,75.69
2018-11-02T15:45:40.818Z,76.91
2018-11-02T15:48:44.934Z,76.68
2018-11-02T15:51:49.036Z,77.14
2018-11-02T15:54:53.163Z,77.25
2018-11-02T15:57:57.274Z,77.94
2018-11-02T16:01:01.399Z,77.92
2018-11-02T16:04:05.922Z,78.21
2018-11-02T16:07:10.043Z,78.13
2018-11-02T16:10:14.231Z,78.38
2018-11-02T16:13:18.358Z,78.41
2018-11-02T16:16:22.471Z,78.40
2018-11-02T16:19:26.593Z,78.16
2018-11-02T16:22:30.963Z,77.86
2018-11-02T16:25:35.082Z,78.60
2018-11-02T16:28:39.190Z,79.15
2018-11-02T16:31:43.398Z,79.22
2018-11-02T16:34:47.519Z,78.91
2018-11-02T16:37:51.630Z,79.16
2018-11-02T16:40:55.758Z,79.62
2018-11-02T16:43:59.889Z,79.20
2018-11-02T16:47:03.970Z,79.42
2018-11-02T16:50:09.649Z,79.13
2018-11-02T16:53:13.722Z,79.57
2018-11-02T16:56:17.842Z,79.12
2018-11-02T16:59:21.964Z,79.40
2018-11-02T17:02:26.087Z,79.53
2018-11-02T17:05:30.186Z,79.27
2018-11-02T17:08:34.314Z,79.28
2018-11-02T17:11:38.459Z,79.30
2018-11-02T17:14:42.534Z,79.43
2018-11-02T17:17:46.637Z,79.54
2018-11-02T17:20:50.746Z,79.18
2018-11-02T17:23:54.863Z,79.67
2018-11-02T17:26:58.977Z,79.56
2018-11-02T17:30:03.097Z,79.08
2018-11-02T17:33:07.197Z,79.24
2018-11-02T17:36:11.361Z,79.75
2018-11-02T17:39:15.466Z,79.44
2018-11-02T17:42:19.651Z,79.60
2018-11-02T17:45:23.770Z,79.77
2018-11-02T17:48:27.942Z,79.80
2018-11-02T17:51:32.142Z,80.14
2018-11-02T17:54:36.259Z,79.89
2018-11-02T17:57:40.358Z,79.77
2018-11-02T18:00:44.521Z,79.94
2018-11-02T18:03:48.632Z,79.71
2018-11-02T18:06:52.955Z,79.84
2018-11-02T18:09:57.074Z,79.67
2018-11-02T18:13:01.186Z,80.22
2018-11-02T18:16:05.374Z,80.54
2018-11-02T18:19:09.491Z,80.35
2018-11-02T18:22:13.636Z,80.21
2018-11-02T18:25:17.712Z,80.53
2018-11-02T18:28:21.830Z,80.79
2018-11-02T18:31:25.946Z,80.95
2018-11-02T18:34:30.169Z,81.71
2018-11-02T18:37:34.514Z,80.89
2018-11-02T18:40:38.646Z,80.82
2018-11-02T18:43:42.755Z,80.90
2018-11-02T18:46:46.883Z,80.49
2018-11-02T18:49:50.986Z,80.64
2018-11-02T18:52:55.107Z,80.86
2018-11-02T18:55:59.228Z,81.00
2018-11-02T18:59:03.522Z,81.22
2018-11-02T19:02:07.754Z,80.89
2018-11-02T19:05:14.964Z,80.81
2018-11-02T19:08:19.082Z,80.59
2018-11-02T19:11:23.239Z,81.29
2018-11-02T19:14:27.359Z,81.45
2018-11-02T19:17:31.479Z,81.49
2018-11-02T19:20:35.667Z,81.82
2018-11-02T19:23:39.727Z,81.68
2018-11-02T19:26:43.858Z,81.14
2018-11-02T19:29:47.974Z,81.23
2018-11-02T19:32:52.139Z,81.42
2018-11-02T19:35:56.199Z,81.69
2018-11-02T19:39:00.306Z,81.66
2018-11-02T19:42:04.410Z,82.25
2018-11-02T19:45:09.459Z,81.59
2018-11-02T19:48:13.571Z,82.21
2018-11-02T19:51:17.686Z,81.59
2018-11-02T19:54:21.798Z,81.28
2018-11-02T19:57:25.922Z,81.53
2018-11-02T20:00:30.032Z,81.89
2018-11-02T20:03:34.144Z,81.40
2018-11-02T20:06:38.253Z,81.09
2018-11-02T20:09:42.347Z,81.49
2018-11-02T20:12:47.030Z,81.61
2018-11-02T20:15:51.187Z,81.86
2018-11-02T20:18:55.330Z,82.05
2018-11-02T20:21:59.419Z,82.51
2018-11-02T20:25:03.612Z,82.23
2018-11-02T20:28:07.722Z,82.16
2018-11-02T20:31:11.819Z,82.42
2018-11-02T20:34:15.967Z,82.12
2018-11-02T20:37:20.078Z,82.45
2018-11-02T20:40:24.170Z,82.13
2018-11-02T20:43:28.290Z,82.37
2018-11-02T20:46:32.391Z,81.76
2018-11-02T20:49:36.524Z,81.95
2018-11-02T20:52:41.050Z,82.11
2018-11-02T20:55:45.150Z,82.25
2018-11-02T20:58:49.246Z,82.21
2018-11-02T21:01:53.343Z,82.01
2018-11-02T21:04:57.467Z,82.46
2018-11-02T21:08:01.638Z,82.54
2018-11-02T21:11:05.856Z,82.47
2018-11-02T21:14:10.028Z,81.76
2018-11-02T21:17:14.119Z,81.46
2018-11-02T21:20:19.456Z,80.82
2018-11-02T21:23:23.494Z,81.87
2018-11-02T21:26:27.603Z,81.59
2018-11-02T21:29:31.727Z,82.30
2018-11-02T21:32:35.841Z,81.61
2018-11-02T21:35:39.956Z,82.00
2018-11-02T21:38:44.122Z,82.08
2018-11-02T21:41:48.171Z,82.08
2018-11-02T21:44:52.303Z,82.13
2018-11-02T21:47:56.390Z,81.22
2018-11-02T21:51:00.598Z,81.65
2018-11-02T21:54:04.670Z,81.83
2018-11-02T21:57:08.771Z,81.27
2018-11-02T22:00:20.342Z,81.87
2018-11-02T22:03:24.416Z,82.24
2018-11-02T22:06:28.518Z,82.10
2018-11-02T22:09:32.617Z,82.80
2018-11-02T22:12:36.987Z,82.50
2018-11-02T22:15:41.074Z,82.73
2018-11-02T22:18:45.312Z,81.58
2018-11-02T22:21:49.323Z,81.58
2018-11-02T22:24:53.430Z,81.06
2018-11-02T22:27:57.551Z,80.21
2018-11-02T22:31:01.751Z,78.83
2018-11-02T22:34:05.823Z,80.18
2018-11-02T22:37:09.910Z,80.03
2018-11-02T22:40:14.556Z,80.09
2018-11-02T22:43:18.642Z,80.13
2018-11-02T22:46:22.751Z,79.99
2018-11-02T22:49:26.858Z,80.94
2018-11-02T22:52:30.960Z,80.73
2018-11-02T22:55:35.067Z,81.02
2018-11-02T22:58:39.178Z,81.65
2018-11-02T23:01:43.294Z,81.98
2018-11-02T23:04:47.394Z,81.88
2018-11-02T23:07:51.490Z,81.83
2018-11-02T23:10:55.591Z,81.96
2018-11-02T23:13:59.695Z,82.52
2018-11-02T23:17:03.860Z,82.35
2018-11-02T23:20:11.279Z,82.65
2018-11-02T23:23:15.378Z,82.93
2018-11-02T23:26:19.478Z,82.47
2018-11-02T23:29:23.705Z,82.38
2018-11-02T23:32:27.891Z,83.16
2018-11-02T23:35:31.998Z,83.18
2018-11-02T23:38:36.146Z,82.55
2018-11-02T23:41:40.255Z,82.18
2018-11-02T23:44:44.364Z,81.68
2018-11-02T23:47:53.769Z,81.64
2018-11-02T23:50:57.879Z,81.74
2018-11-02T23:54:01.991Z,82.07
2018-11-02T23:57:06.123Z,82.06
